Time;durP1;ratioP1;P1;durP2;ratioP2;P2;SDS_P1;SDS_P2;PMS_P1;PMS_P2;Temp;Humidity;BMP_temperature;BMP_pressure;BME280_temperature;BME280_humidity;BME280_pressure;Samples;Min_cycle;Max_cycle;Signal;HPM_P1;HPM_P2
2022/03/17 00:01:02;;;;;;;21.87;18.60;;;13.10;93.80;;;;;;4951610;29;20521;-82
2022/03/17 00:03:28;;;;;;;19.93;17.80;;;12.90;93.70;;;;;;4953171;29;21568;-83
2022/03/17 00:05:55;;;;;;;19.80;17.70;;;13.10;93.60;;;;;;4955775;28;20493;-82
2022/03/17 00:08:22;;;;;;;19.03;17.00;;;12.90;93.60;;;;;;4957137;29;20449;-82
2022/03/17 00:10:56;;;;;;;19.17;17.17;;;12.70;94.10;;;;;;4957003;29;20472;-82
2022/03/17 00:13:23;;;;;;;20.27;17.37;;;13.00;93.80;;;;;;4955720;28;20460;-83
2022/03/17 00:15:49;;;;;;;20.70;17.80;;;13.30;93.30;;;;;;4956525;29;20532;-84
2022/03/17 00:18:16;;;;;;;19.63;16.90;;;13.20;93.20;;;;;;4955169;28;20504;-83
2022/03/17 00:20:43;;;;;;;21.13;18.93;;;13.20;93.20;;;;;;4940543;29;20862;-82
2022/03/17 00:23:10;;;;;;;20.07;17.53;;;13.20;93.30;;;;;;4957862;29;20943;-83
2022/03/17 00:25:38;;;;;;;23.37;18.70;;;13.10;93.60;;;;;;4960203;28;20481;-83
2022/03/17 00:28:05;;;;;;;25.80;18.17;;;13.10;93.50;;;;;;4957182;29;20540;-83
2022/03/17 00:30:31;;;;;;;20.90;17.13;;;13.00;93.60;;;;;;4957186;29;20456;-84
2022/03/17 00:32:58;;;;;;;21.40;18.23;;;13.00;93.80;;;;;;4954231;28;20454;-83
2022/03/17 00:35:38;;;;;;;25.87;18.90;;;13.10;93.60;;;;;;4957209;28;20488;-83
2022/03/17 00:38:08;;;;;;;21.53;18.37;;;12.90;93.70;;;;;;4950345;29;20523;-84
2022/03/17 00:40:37;;;;;;;20.13;17.53;;;13.00;93.90;;;;;;4957759;29;20612;-85
2022/03/17 00:43:09;;;;;;;19.53;17.30;;;12.90;93.60;;;;;;4946052;29;20458;-84
2022/03/17 00:45:36;;;;;;;22.60;18.40;;;12.70;94.00;;;;;;4941059;29;20481;-85
2022/03/17 00:48:05;;;;;;;19.97;17.27;;;12.80;94.10;;;;;;4958434;28;20484;-82
2022/03/17 00:50:32;;;;;;;19.50;17.23;;;12.80;93.90;;;;;;4955897;29;20464;-84
2022/03/17 00:53:00;;;;;;;20.70;18.50;;;12.70;94.10;;;;;;4956606;29;20460;-84
2022/03/17 00:55:27;;;;;;;20.90;17.67;;;12.80;94.30;;;;;;4955898;28;20485;-83
2022/03/17 00:57:54;;;;;;;19.93;17.63;;;12.80;94.10;;;;;;4956102;29;20449;-83
2022/03/17 01:00:21;;;;;;;22.80;17.80;;;12.60;94.30;;;;;;4955656;28;20467;-84
2022/03/17 01:02:51;;;;;;;20.20;17.97;;;12.70;94.40;;;;;;4954495;28;20457;-83
2022/03/17 01:05:18;;;;;;;19.53;17.40;;;12.90;94.30;;;;;;4940118;29;20539;-83
2022/03/17 01:07:47;;;;;;;22.10;17.30;;;13.00;94.00;;;;;;4939006;29;20955;-84
2022/03/17 01:10:16;;;;;;;21.03;17.90;;;13.10;93.60;;;;;;4951754;29;20454;-83
2022/03/17 01:12:46;;;;;;;19.87;17.07;;;13.00;93.50;;;;;;4932128;29;20457;-83
2022/03/17 01:15:15;;;;;;;21.73;18.10;;;13.00;93.50;;;;;;4956915;28;20489;-84
2022/03/17 01:17:41;;;;;;;20.03;16.60;;;12.70;94.00;;;;;;4965474;29;20480;-81
2022/03/17 01:20:09;;;;;;;19.37;17.27;;;12.80;94.10;;;;;;4962472;29;20469;-80
2022/03/17 01:22:36;;;;;;;22.57;18.53;;;12.60;94.30;;;;;;4939395;29;20519;-82
2022/03/17 01:25:05;;;;;;;20.03;17.83;;;12.50;94.60;;;;;;4956724;28;20472;-82
2022/03/17 01:27:34;;;;;;;21.13;18.33;;;12.60;94.50;;;;;;4945799;29;20529;-83
2022/03/17 01:30:01;;;;;;;19.93;17.50;;;12.70;94.40;;;;;;4956270;29;20471;-83
2022/03/17 01:32:28;;;;;;;20.47;18.20;;;12.70;94.40;;;;;;4955718;29;21040;-82
2022/03/17 01:34:55;;;;;;;21.53;17.00;;;12.50;94.30;;;;;;4934930;28;20475;-84
2022/03/17 01:37:22;;;;;;;23.10;17.20;;;12.70;94.40;;;;;;4955980;29;20448;-81
2022/03/17 01:39:48;;;;;;;22.87;18.20;;;12.80;94.10;;;;;;4955015;29;20823;-83
2022/03/17 01:42:15;;;;;;;19.97;17.83;;;12.80;93.90;;;;;;4952446;28;20459;-84
2022/03/17 01:44:42;;;;;;;21.23;19.00;;;12.90;93.80;;;;;;4920697;29;20450;-82
2022/03/17 01:47:27;;;;;;;21.50;17.90;;;12.90;93.60;;;;;;4953534;29;20455;-83
2022/03/17 01:49:56;;;;;;;22.23;19.10;;;12.80;93.70;;;;;;4952359;29;20467;-82
2022/03/17 01:52:23;;;;;;;18.70;16.60;;;12.80;93.70;;;;;;4955497;29;20453;-84
2022/03/17 01:54:51;;;;;;;21.53;19.23;;;12.60;94.20;;;;;;4942029;28;20457;-83
2022/03/17 01:57:18;;;;;;;19.80;17.70;;;12.60;94.40;;;;;;4955768;28;20452;-83
2022/03/17 01:59:47;;;;;;;21.93;18.90;;;12.60;94.50;;;;;;4956564;28;20453;-84
2022/03/17 02:02:13;;;;;;;21.80;18.77;;;12.70;94.30;;;;;;4940205;28;20449;-83
2022/03/17 02:04:41;;;;;;;21.27;18.50;;;12.80;94.10;;;;;;4965532;29;20448;-82
2022/03/17 02:07:09;;;;;;;21.70;18.83;;;13.00;93.80;;;;;;4971098;29;20469;-80
2022/03/17 02:09:36;;;;;;;21.33;19.13;;;12.80;93.90;;;;;;4959603;29;20464;-83
2022/03/17 02:14:53;;;;;;;21.77;18.17;;;12.60;94.10;;;;;;4947850;28;20464;-84
2022/03/17 02:17:21;;;;;;;20.27;18.17;;;12.60;94.20;;;;;;4959877;29;20460;-85
2022/03/17 02:19:49;;;;;;;20.17;18.00;;;12.80;94.20;;;;;;4956963;28;20696;-83
2022/03/17 02:22:19;;;;;;;23.50;19.17;;;12.90;93.80;;;;;;4938457;29;20454;-84
2022/03/17 02:27:38;;;;;;;19.40;17.10;;;12.50;94.20;;;;;;4960491;28;20457;-82
2022/03/17 02:30:07;;;;;;;21.73;18.47;;;12.50;94.50;;;;;;4960784;28;20934;-82
2022/03/17 02:32:33;;;;;;;20.50;18.27;;;12.30;94.70;;;;;;4959503;29;20465;-83
2022/03/17 02:35:05;;;;;;;21.07;18.93;;;12.50;94.70;;;;;;4959969;29;20471;-82
2022/03/17 02:37:32;;;;;;;23.83;19.10;;;12.60;94.40;;;;;;4953720;29;20457;-84
2022/03/17 02:40:04;;;;;;;22.83;19.67;;;12.70;94.20;;;;;;4959577;29;20452;-83
2022/03/17 02:42:31;;;;;;;23.17;20.70;;;12.70;94.00;;;;;;4957915;29;20804;-83
2022/03/17 02:44:59;;;;;;;25.90;18.00;;;12.70;94.10;;;;;;4962109;29;20523;-82
2022/03/17 02:47:27;;;;;;;21.07;18.83;;;12.50;94.50;;;;;;4971666;28;20449;-83
2022/03/17 02:49:55;;;;;;;24.30;21.47;;;12.70;94.20;;;;;;4962015;29;20457;-84
2022/03/17 02:52:26;;;;;;;23.83;20.53;;;12.60;94.30;;;;;;4959835;29;20463;-83
2022/03/17 02:54:53;;;;;;;22.27;19.80;;;12.70;94.30;;;;;;4955791;29;20457;-83
2022/03/17 02:57:20;;;;;;;21.47;19.17;;;12.50;94.70;;;;;;4945592;29;20487;-83
2022/03/17 02:59:51;;;;;;;22.33;19.87;;;12.40;94.80;;;;;;4953061;29;20433;-85
2022/03/17 03:02:19;;;;;;;20.87;17.83;;;12.30;95.10;;;;;;4980654;28;20480;-84
2022/03/17 03:04:46;;;;;;;21.37;19.17;;;12.60;94.80;;;;;;4980931;28;20475;-84
2022/03/17 03:07:13;;;;;;;23.10;20.60;;;12.70;94.50;;;;;;4976075;29;20452;-83
2022/03/17 03:09:40;;;;;;;21.80;19.13;;;12.80;94.20;;;;;;4972292;28;20508;-85
2022/03/17 03:12:08;;;;;;;21.97;19.17;;;12.80;94.20;;;;;;4979637;28;20429;-84
2022/03/17 03:14:35;;;;;;;24.23;21.70;;;12.80;94.30;;;;;;4979140;28;20449;-84
2022/03/17 03:17:02;;;;;;;22.57;20.17;;;12.90;94.20;;;;;;4965145;28;20525;-83
2022/03/17 03:19:28;;;;;;;26.47;20.33;;;12.70;94.30;;;;;;4958635;29;20524;-81
2022/03/17 03:21:55;;;;;;;23.70;19.63;;;12.80;94.70;;;;;;4942441;29;20467;-83
2022/03/17 03:24:22;;;;;;;26.33;20.53;;;12.70;94.30;;;;;;4943739;28;20509;-82
2022/03/17 03:26:49;;;;;;;24.30;19.30;;;12.70;94.40;;;;;;4944282;28;20491;-84
2022/03/17 03:29:27;;;;;;;24.10;21.50;;;12.50;94.60;;;;;;4957764;29;20452;-83
2022/03/17 03:32:00;;;;;;;24.17;20.10;;;12.40;95.10;;;;;;4961819;29;20456;-84
2022/03/17 03:34:28;;;;;;;24.87;19.87;;;12.20;95.50;;;;;;4962270;29;20464;-84
2022/03/17 03:39:40;;;;;;;22.70;19.90;;;12.40;95.00;;;;;;4961312;29;20453;-83
2022/03/17 03:42:09;;;;;;;24.97;20.20;;;12.20;95.80;;;;;;4960345;29;20461;-83
2022/03/17 03:44:37;;;;;;;23.67;20.97;;;12.40;95.70;;;;;;4961257;29;20512;-82
2022/03/17 03:47:05;;;;;;;23.17;20.23;;;12.30;95.80;;;;;;4960297;28;20890;-83
2022/03/17 03:49:32;;;;;;;24.63;21.40;;;12.40;95.90;;;;;;4958142;29;20574;-83
2022/03/17 03:51:59;;;;;;;24.90;20.53;;;12.40;95.80;;;;;;4959163;28;20461;-84
2022/03/17 03:54:26;;;;;;;24.77;20.87;;;12.60;95.90;;;;;;4960059;29;20456;-83
2022/03/17 03:56:55;;;;;;;25.60;21.23;;;12.60;95.70;;;;;;4943182;29;20496;-83
2022/03/17 03:59:23;;;;;;;23.50;20.57;;;12.50;96.00;;;;;;4968858;29;20440;-81
2022/03/17 04:01:53;;;;;;;26.20;21.90;;;12.50;95.90;;;;;;4971114;29;20445;-81
2022/03/17 04:04:21;;;;;;;26.40;19.73;;;12.40;96.40;;;;;;4959062;29;20491;-83
2022/03/17 04:06:56;;;;;;;26.73;22.13;;;12.50;96.60;;;;;;4951646;28;20492;-83
2022/03/17 04:09:24;;;;;;;25.30;22.00;;;12.40;96.50;;;;;;4954496;29;20460;-82
2022/03/17 04:11:54;;;;;;;24.50;20.33;;;12.50;96.50;;;;;;4955906;29;20457;-83
2022/03/17 04:14:22;;;;;;;26.70;22.10;;;12.40;96.50;;;;;;4957075;29;20515;-83
2022/03/17 04:16:49;;;;;;;24.43;20.87;;;12.50;96.50;;;;;;4955704;28;20548;-82
2022/03/17 04:19:16;;;;;;;26.13;22.10;;;12.50;96.50;;;;;;4955813;28;20840;-83
2022/03/17 04:21:45;;;;;;;25.10;22.43;;;12.40;96.60;;;;;;4939130;29;20468;-82
2022/03/17 04:24:13;;;;;;;26.40;23.47;;;12.40;97.00;;;;;;4955892;28;20453;-82
2022/03/17 04:26:40;;;;;;;27.43;22.60;;;12.50;96.90;;;;;;4956157;28;20484;-81
2022/03/17 04:29:09;;;;;;;28.50;23.73;;;12.60;97.00;;;;;;4945447;29;20445;-82
2022/03/17 04:31:38;;;;;;;28.27;23.90;;;12.50;96.90;;;;;;4956120;29;20500;-82
2022/03/17 04:34:05;;;;;;;28.93;23.60;;;12.60;96.90;;;;;;4948018;29;20454;-82
2022/03/17 04:36:32;;;;;;;27.90;22.47;;;12.60;96.80;;;;;;4944039;29;20492;-83
2022/03/17 04:39:00;;;;;;;32.27;25.17;;;12.60;97.00;;;;;;4937879;29;20460;-81
2022/03/17 04:41:27;;;;;;;27.03;23.33;;;12.60;97.20;;;;;;4954647;28;20463;-81
2022/03/17 04:43:53;;;;;;;28.20;25.20;;;12.60;97.50;;;;;;4957015;29;20452;-82
2022/03/17 04:46:20;;;;;;;30.40;25.30;;;12.70;97.20;;;;;;4955104;29;20556;-81
2022/03/17 04:48:47;;;;;;;28.93;24.57;;;12.60;97.60;;;;;;4958974;29;20461;-82
2022/03/17 04:51:15;;;;;;;28.57;25.20;;;12.60;98.10;;;;;;4966136;29;20848;-84
2022/03/17 04:53:41;;;;;;;28.00;24.60;;;12.60;98.20;;;;;;4965542;28;20444;-83
2022/03/17 04:56:17;;;;;;;27.47;24.23;;;12.50;98.50;;;;;;4956212;28;20481;-83
2022/03/17 04:58:45;;;;;;;32.13;25.23;;;12.50;98.90;;;;;;4955012;29;20445;-83
2022/03/17 05:01:13;;;;;;;30.13;25.90;;;12.50;99.30;;;;;;4943248;28;20458;-83
2022/03/17 05:03:41;;;;;;;29.23;24.70;;;12.40;99.50;;;;;;4938141;29;20450;-83
2022/03/17 05:06:11;;;;;;;30.17;24.87;;;12.20;99.90;;;;;;4943132;29;20575;-83
2022/03/17 05:08:38;;;;;;;30.17;25.87;;;12.60;99.90;;;;;;4951799;29;20468;-82
2022/03/17 05:11:07;;;;;;;32.07;26.77;;;12.80;99.90;;;;;;4954804;28;20463;-83
2022/03/17 05:13:34;;;;;;;34.67;26.80;;;12.80;99.90;;;;;;4957133;29;20496;-83
2022/03/17 05:16:02;;;;;;;31.43;26.23;;;12.80;99.90;;;;;;4956363;29;20496;-84
2022/03/17 05:18:29;;;;;;;33.97;26.57;;;12.60;99.90;;;;;;4951800;29;20480;-81
2022/03/17 05:20:56;;;;;;;31.97;27.50;;;12.50;99.90;;;;;;4938030;29;20446;-82
2022/03/17 05:23:22;;;;;;;35.23;26.10;;;12.30;99.90;;;;;;4956233;29;20461;-83
2022/03/17 05:25:50;;;;;;;30.97;27.50;;;12.40;99.90;;;;;;4955835;28;20835;-83
2022/03/17 05:28:18;;;;;;;35.57;26.60;;;12.20;99.90;;;;;;4954147;29;20460;-81
2022/03/17 05:30:45;;;;;;;29.83;25.70;;;12.10;99.90;;;;;;4939469;29;20460;-82
2022/03/17 05:33:12;;;;;;;32.17;26.03;;;12.10;99.90;;;;;;4953770;29;20938;-83
2022/03/17 05:35:40;;;;;;;33.83;27.33;;;12.10;99.90;;;;;;4956090;28;20532;-82
2022/03/17 05:38:07;;;;;;;32.63;27.27;;;12.10;99.90;;;;;;4954755;29;20515;-84
2022/03/17 05:40:34;;;;;;;38.70;28.40;;;12.10;99.90;;;;;;4952585;28;20448;-83
2022/03/17 05:43:03;;;;;;;33.57;29.40;;;12.10;99.90;;;;;;4949254;28;20459;-82
2022/03/17 05:45:30;;;;;;;33.70;25.93;;;12.10;99.90;;;;;;4957035;29;20472;-83
2022/03/17 05:47:59;;;;;;;34.43;27.00;;;11.90;99.90;;;;;;4954847;29;20463;-83
2022/03/17 05:50:28;;;;;;;34.67;28.10;;;12.10;99.90;;;;;;4957299;29;20457;-83
2022/03/17 05:52:55;;;;;;;38.63;28.63;;;12.30;99.90;;;;;;4939444;29;20472;-82
2022/03/17 05:55:24;;;;;;;36.53;29.37;;;12.30;99.90;;;;;;4955960;28;20475;-84
2022/03/17 05:57:53;;;;;;;32.33;26.43;;;12.40;99.90;;;;;;4954307;28;21032;-81
2022/03/17 06:00:23;;;;;;;35.00;28.50;;;12.20;99.90;;;;;;4939779;29;20931;-85
2022/03/17 06:02:51;;;;;;;33.43;26.10;;;12.20;99.90;;;;;;4942194;28;20818;-84
2022/03/17 06:05:18;;;;;;;31.30;26.40;;;12.30;99.90;;;;;;4938715;28;20466;-83
2022/03/17 06:07:46;;;;;;;34.17;26.97;;;12.40;99.90;;;;;;4943591;29;21030;-83
2022/03/17 06:10:24;;;;;;;28.60;21.87;;;12.10;99.90;;;;;;4957930;28;20461;-82
2022/03/17 06:12:52;;;;;;;27.67;20.40;;;11.90;99.90;;;;;;4955834;29;21363;-82
2022/03/17 06:15:20;;;;;;;24.77;19.30;;;11.80;99.90;;;;;;4938917;29;20480;-83
2022/03/17 06:17:50;;;;;;;23.30;20.13;;;11.70;99.90;;;;;;4925833;29;20482;-82
2022/03/17 06:20:20;;;;;;;24.00;18.20;;;11.60;99.90;;;;;;4934914;29;20483;-83
2022/03/17 06:22:52;;;;;;;23.90;19.70;;;11.60;99.90;;;;;;4947746;29;20606;-84
2022/03/17 06:25:21;;;;;;;23.40;19.53;;;11.50;99.90;;;;;;4955613;28;20491;-81
2022/03/17 06:27:49;;;;;;;22.27;17.27;;;11.50;99.90;;;;;;4938255;29;20541;-84
2022/03/17 06:30:17;;;;;;;24.73;19.10;;;11.40;99.90;;;;;;4955821;29;20452;-82
2022/03/17 06:32:45;;;;;;;22.43;18.87;;;11.30;99.90;;;;;;4938550;28;20460;-81
2022/03/17 06:35:19;;;;;;;28.80;21.43;;;11.30;99.90;;;;;;4954711;28;20842;-83
2022/03/17 06:37:48;;;;;;;24.80;19.83;;;11.20;99.90;;;;;;4955722;29;20487;-83
2022/03/17 06:40:16;;;;;;;25.27;20.53;;;11.20;99.90;;;;;;4956858;29;20445;-80
2022/03/17 06:42:44;;;;;;;26.93;21.23;;;11.20;99.90;;;;;;4964646;29;20461;-81
2022/03/17 06:45:12;;;;;;;26.90;21.60;;;11.10;99.90;;;;;;4943570;29;21375;-83
2022/03/17 06:47:39;;;;;;;26.17;19.63;;;11.10;99.90;;;;;;4958472;28;20472;-83
2022/03/17 06:50:08;;;;;;;27.13;21.00;;;11.10;99.90;;;;;;4960057;29;20455;-83
2022/03/17 06:52:35;;;;;;;33.00;22.20;;;11.10;99.90;;;;;;4957160;29;20457;-83
2022/03/17 06:55:02;;;;;;;29.10;22.60;;;11.00;99.90;;;;;;4959666;28;20826;-83
2022/03/17 06:57:28;;;;;;;30.80;22.53;;;11.00;99.90;;;;;;4958165;28;20893;-83
2022/03/17 06:59:55;;;;;;;28.53;21.70;;;11.00;99.90;;;;;;4958549;29;20580;-83
2022/03/17 07:02:22;;;;;;;31.30;23.70;;;11.00;99.90;;;;;;4933439;29;20462;-84
2022/03/17 07:04:49;;;;;;;28.37;21.77;;;11.00;99.90;;;;;;4940561;29;20446;-80
2022/03/17 07:07:16;;;;;;;26.37;21.30;;;10.90;99.90;;;;;;4948971;28;20910;-81
2022/03/17 07:09:42;;;;;;;31.03;23.20;;;10.90;99.90;;;;;;4940953;29;20469;-81
2022/03/17 07:12:11;;;;;;;30.40;22.47;;;11.00;99.90;;;;;;4956983;28;20464;-83
2022/03/17 07:14:39;;;;;;;32.43;21.00;;;11.00;99.90;;;;;;4957148;29;20461;-82
2022/03/17 07:17:05;;;;;;;25.77;19.63;;;11.00;99.90;;;;;;4942554;29;20849;-83
2022/03/17 07:19:33;;;;;;;28.30;20.03;;;11.00;99.90;;;;;;4956852;29;20524;-82
2022/03/17 07:21:59;;;;;;;20.13;16.40;;;11.00;99.90;;;;;;4957617;29;20461;-82
2022/03/17 07:24:26;;;;;;;17.57;14.30;;;11.00;99.90;;;;;;4958630;29;20508;-83
2022/03/17 07:26:53;;;;;;;20.77;14.90;;;11.00;99.90;;;;;;4958886;29;20484;-83
2022/03/17 07:29:20;;;;;;;16.40;14.60;;;11.00;99.90;;;;;;4934902;29;20908;-83
2022/03/17 07:31:47;;;;;;;16.37;13.67;;;10.90;99.90;;;;;;4958795;28;20453;-82
2022/03/17 07:34:14;;;;;;;15.97;12.10;;;10.80;99.90;;;;;;4960520;29;20460;-80
2022/03/17 07:36:41;;;;;;;13.37;11.90;;;10.80;99.90;;;;;;4971436;29;20481;-82
2022/03/17 07:39:07;;;;;;;12.10;10.63;;;10.70;99.90;;;;;;4963302;28;20452;-83
2022/03/17 07:41:34;;;;;;;14.17;12.20;;;10.80;99.90;;;;;;4956701;29;20467;-82
2022/03/17 07:44:02;;;;;;;13.60;10.90;;;10.70;99.90;;;;;;4960389;29;20453;-81
2022/03/17 07:46:28;;;;;;;13.50;11.30;;;10.70;99.90;;;;;;4956508;28;20478;-82
2022/03/17 07:48:55;;;;;;;13.03;11.63;;;10.70;99.90;;;;;;4958720;29;20445;-82
2022/03/17 07:51:22;;;;;;;19.30;11.70;;;10.70;99.90;;;;;;4963140;28;20453;-79
2022/03/17 07:53:48;;;;;;;14.73;10.40;;;10.70;99.90;;;;;;4955128;29;20857;-81
2022/03/17 07:56:19;;;;;;;11.97;10.77;;;10.70;99.90;;;;;;4956357;29;20487;-81
2022/03/17 07:58:46;;;;;;;13.17;11.00;;;10.70;99.90;;;;;;4937318;29;20829;-81
2022/03/17 08:01:15;;;;;;;13.00;10.77;;;10.70;99.90;;;;;;4941696;29;20540;-81
2022/03/17 08:03:42;;;;;;;15.40;10.30;;;10.70;99.90;;;;;;4951538;29;20465;-83
2022/03/17 08:06:10;;;;;;;13.30;9.10;;;10.70;99.90;;;;;;4955749;28;20488;-83
2022/03/17 08:08:37;;;;;;;10.93;9.07;;;10.80;99.90;;;;;;4956676;29;20468;-82
2022/03/17 08:11:04;;;;;;;8.60;7.23;;;10.90;99.90;;;;;;4955930;29;20460;-82
2022/03/17 08:13:31;;;;;;;8.30;6.40;;;10.90;99.90;;;;;;4955849;28;20476;-82
2022/03/17 08:15:58;;;;;;;11.50;7.37;;;10.80;99.90;;;;;;4940289;29;20472;-81
2022/03/17 08:18:25;;;;;;;8.27;7.37;;;10.80;99.90;;;;;;4945155;29;20481;-82
2022/03/17 08:20:51;;;;;;;9.07;7.37;;;10.80;99.90;;;;;;4933092;29;20513;-83
2022/03/17 08:23:21;;;;;;;7.80;6.83;;;10.70;99.90;;;;;;4954264;29;20483;-83
2022/03/17 08:25:49;;;;;;;8.80;8.00;;;10.70;99.90;;;;;;4956394;29;20959;-83
2022/03/17 08:28:20;;;;;;;11.77;9.87;;;10.70;99.90;;;;;;4951678;28;20461;-83
2022/03/17 08:30:47;;;;;;;12.00;9.30;;;10.70;99.90;;;;;;4939585;29;20463;-82
2022/03/17 08:33:15;;;;;;;10.23;9.30;;;10.70;99.90;;;;;;4947036;29;20464;-83
2022/03/17 08:35:42;;;;;;;11.50;9.77;;;10.80;99.90;;;;;;4956041;29;20532;-82
2022/03/17 08:38:12;;;;;;;10.67;9.63;;;11.00;99.90;;;;;;4953372;29;20481;-83
2022/03/17 08:40:40;;;;;;;14.27;10.63;;;11.00;99.90;;;;;;4956761;29;20445;-83
2022/03/17 08:43:11;;;;;;;11.33;10.17;;;10.90;99.90;;;;;;4956318;29;20453;-83
2022/03/17 08:51:12;;;;;;;9.33;7.17;;;10.90;99.90;;;;;;4958945;28;20445;-83
2022/03/17 08:53:39;;;;;;;8.40;7.60;;;11.00;99.90;;;;;;4953356;28;20460;-82
2022/03/17 08:56:06;;;;;;;9.47;6.50;;;11.00;99.90;;;;;;4938473;29;20492;-84
2022/03/17 08:58:35;;;;;;;7.50;5.63;;;11.00;99.90;;;;;;4952772;28;21020;-83
2022/03/17 09:01:02;;;;;;;6.10;5.47;;;11.10;99.90;;;;;;4942658;29;20483;-83
2022/03/17 09:03:30;;;;;;;7.70;5.70;;;11.00;99.90;;;;;;4947247;29;20464;-83
2022/03/17 09:05:58;;;;;;;9.30;5.37;;;11.20;99.90;;;;;;4954547;28;20480;-82
2022/03/17 09:08:27;;;;;;;5.13;4.33;;;11.10;99.90;;;;;;4956357;29;21302;-84
2022/03/17 09:10:55;;;;;;;4.77;4.37;;;11.10;99.90;;;;;;4955570;28;20456;-82
2022/03/17 09:13:26;;;;;;;4.40;4.00;;;11.30;99.90;;;;;;4938704;29;21019;-82
2022/03/17 09:15:54;;;;;;;4.87;4.47;;;11.10;99.80;;;;;;4955416;28;21021;-86
2022/03/17 09:18:21;;;;;;;6.13;5.40;;;11.00;99.80;;;;;;4939365;28;20476;-86
2022/03/17 09:20:48;;;;;;;8.33;4.93;;;11.20;99.90;;;;;;4956163;28;20456;-82
2022/03/17 09:23:16;;;;;;;8.03;5.80;;;11.10;99.90;;;;;;4957226;28;20461;-81
2022/03/17 09:25:43;;;;;;;6.10;5.30;;;11.10;99.90;;;;;;4942928;29;20487;-81
2022/03/17 09:28:10;;;;;;;5.40;4.87;;;11.20;99.90;;;;;;4949199;29;20478;-81
2022/03/17 09:30:37;;;;;;;6.47;4.97;;;11.20;99.90;;;;;;4963202;28;20456;-80
2022/03/17 09:33:06;;;;;;;5.07;4.67;;;11.10;99.90;;;;;;4951040;29;20544;-79
2022/03/17 09:35:34;;;;;;;5.97;4.33;;;11.10;99.90;;;;;;4961774;29;20461;-83
2022/03/17 09:38:03;;;;;;;6.40;5.63;;;10.90;99.90;;;;;;4950101;29;20982;-82
2022/03/17 09:40:30;;;;;;;5.10;4.60;;;10.80;99.90;;;;;;4951516;29;20457;-83
2022/03/17 09:45:42;;;;;;;8.30;4.67;;;10.80;99.90;;;;;;4957204;29;20487;-81
2022/03/17 09:48:11;;;;;;;6.93;4.53;;;10.80;99.90;;;;;;4963904;29;20451;-83
2022/03/17 09:50:39;;;;;;;5.40;4.13;;;10.90;99.90;;;;;;4940436;29;20461;-81
2022/03/17 09:53:07;;;;;;;8.00;4.20;;;10.90;99.90;;;;;;4957157;28;20543;-81
2022/03/17 09:55:34;;;;;;;6.93;4.37;;;11.00;99.90;;;;;;4956086;29;20539;-82
2022/03/17 09:58:04;;;;;;;5.90;3.53;;;11.10;99.90;;;;;;4926452;29;20484;-84
2022/03/17 10:06:41;;;;;;;5.67;3.97;;;11.00;99.90;;;;;;5002130;28;20447;-86
2022/03/17 10:09:48;;;;;;;4.33;3.93;;;11.00;99.90;;;;;;4988679;28;20540;-85
2022/03/17 10:16:50;;;;;;;9.40;6.30;;;11.10;99.90;;;;;;4930492;28;20985;-84
2022/03/17 10:20:38;;;;;;;4.40;3.50;;;11.20;99.90;;;;;;4966908;28;20464;-84
2022/03/17 10:24:01;;;;;;;5.33;3.50;;;11.30;99.90;;;;;;4943844;29;20509;-85
2022/03/17 10:27:14;;;;;;;3.43;3.13;;;11.40;99.90;;;;;;4951184;28;20467;-86
2022/03/17 10:31:18;;;;;;;6.03;3.67;;;11.40;99.30;;;;;;4890961;29;20496;-85
2022/03/17 10:35:23;;;;;;;;;;;;;;;;;;;;;
2022/03/17 10:42:26;;;;;;;5.93;3.73;;;11.10;99.90;;;;;;4897763;29;20491;-84
2022/03/17 10:45:47;;;;;;;6.13;3.80;;;11.00;99.90;;;;;;4890958;29;20464;-86
2022/03/17 10:49:25;;;;;;;5.87;3.90;;;11.00;99.90;;;;;;4852789;29;20534;-85
2022/03/17 10:52:45;;;;;;;4.80;3.57;;;11.20;99.90;;;;;;4889385;29;20479;-83
2022/03/17 10:56:55;;;;;;;;;;;;;;;;;;;;;
2022/03/17 11:00:22;;;;;;;;;;;;;;;;;;;;;
2022/03/17 11:08:10;;;;;;;4.43;2.30;;;11.10;99.10;;;;;;4900346;29;20491;-83
2022/03/17 11:11:47;;;;;;;4.07;2.27;;;11.10;99.20;;;;;;4887209;29;20562;-85
2022/03/17 11:14:48;;;;;;;4.80;2.10;;;11.10;99.00;;;;;;4914351;29;20449;-84
2022/03/17 11:18:17;;;;;;;4.23;1.87;;;11.20;99.00;;;;;;4944753;29;20516;-84
2022/03/17 11:26:00;;;;;;;5.50;2.43;;;11.60;97.40;;;;;;4916345;29;20458;-83
2022/03/17 11:29:06;;;;;;;;;;;;;;;;;;;;;
2022/03/17 11:32:34;;;;;;;2.03;1.53;;;11.50;97.10;;;;;;4945814;29;20476;-85
2022/03/17 11:35:48;;;;;;;3.90;1.70;;;11.40;97.20;;;;;;4960326;29;20457;-85
2022/03/17 11:39:12;;;;;;;2.90;1.40;;;11.60;97.30;;;;;;4965705;29;20484;-85
2022/03/17 11:42:18;;;;;;;;;;;;;;;;;;;;;
2022/03/17 11:49:27;;;;;;;2.23;1.67;;;12.00;95.40;;;;;;4900714;29;20423;-84
2022/03/17 11:52:02;;;;;;;2.50;1.83;;;12.00;95.60;;;;;;4955741;28;20556;-83
2022/03/17 11:54:51;;;;;;;2.00;1.67;;;12.00;95.60;;;;;;4963558;29;20473;-83
2022/03/17 11:57:23;;;;;;;2.00;1.50;;;12.00;94.60;;;;;;4948221;29;20483;-83
2022/03/17 12:00:07;;;;;;;3.20;2.03;;;12.00;94.30;;;;;;4947535;29;20471;-84
2022/03/17 12:02:41;;;;;;;3.80;1.60;;;12.10;94.40;;;;;;4964313;28;20473;-84
2022/03/17 12:05:12;;;;;;;6.43;1.40;;;12.00;94.50;;;;;;4947169;29;20532;-85
2022/03/17 12:07:47;;;;;;;3.27;1.80;;;12.10;94.30;;;;;;4963112;29;20453;-83
2022/03/17 12:10:52;;;;;;;2.83;2.10;;;12.10;94.30;;;;;;4961595;29;20862;-82
2022/03/17 12:13:24;;;;;;;2.00;1.50;;;12.10;94.30;;;;;;4970021;29;20445;-81
2022/03/17 12:15:57;;;;;;;3.73;1.73;;;12.00;94.20;;;;;;4952581;29;20464;-84
2022/03/17 12:18:26;;;;;;;2.77;1.87;;;11.90;94.60;;;;;;4959062;28;20464;-84
2022/03/17 12:20:53;;;;;;;3.83;2.07;;;11.90;94.80;;;;;;4962910;28;20897;-84
2022/03/17 12:23:46;;;;;;;2.17;1.57;;;11.80;95.10;;;;;;4963186;29;20469;-82
2022/03/17 12:26:20;;;;;;;3.33;2.23;;;11.70;95.30;;;;;;4973308;28;20456;-84
2022/03/17 12:28:57;;;;;;;7.67;4.07;;;11.80;95.60;;;;;;4997031;28;20494;-84
2022/03/17 12:31:31;;;;;;;5.10;2.57;;;12.00;95.80;;;;;;4982217;28;20495;-84
2022/03/17 12:34:33;;;;;;;5.60;2.57;;;12.00;95.80;;;;;;4994446;28;20463;-84
2022/03/17 12:37:04;;;;;;;4.57;2.37;;;11.90;96.00;;;;;;4997670;28;20456;-84
2022/03/17 12:39:41;;;;;;;5.30;2.23;;;11.80;96.30;;;;;;5000521;28;20479;-84
2022/03/17 12:42:22;;;;;;;6.00;2.60;;;11.80;96.40;;;;;;4961871;28;20473;-85
2022/03/17 12:45:02;;;;;;;8.10;2.37;;;11.80;96.60;;;;;;4986550;28;20463;-84
2022/03/17 12:47:56;;;;;;;4.13;2.30;;;12.00;96.30;;;;;;4982469;28;20436;-85
2022/03/17 12:50:32;;;;;;;5.50;2.03;;;12.00;96.50;;;;;;4982211;28;20453;-85
2022/03/17 12:52:58;;;;;;;2.73;1.90;;;12.10;96.20;;;;;;4998820;28;20451;-84
2022/03/17 12:55:46;;;;;;;4.37;3.10;;;12.10;95.70;;;;;;4993256;28;20462;-85
2022/03/17 12:58:20;;;;;;;4.30;2.40;;;12.10;95.50;;;;;;4980211;28;20484;-84
2022/03/17 13:00:50;;;;;;;6.90;2.97;;;12.30;95.50;;;;;;4983841;28;20451;-84
2022/03/17 13:03:20;;;;;;;7.03;2.17;;;12.30;94.80;;;;;;4955769;28;20453;-83
2022/03/17 13:08:55;;;;;;;3.87;2.90;;;12.80;93.50;;;;;;4966897;28;20456;-84
2022/03/17 13:14:21;;;;;;;6.00;2.90;;;12.30;93.50;;;;;;4984277;28;20960;-84
2022/03/17 13:17:03;;;;;;;4.23;2.53;;;12.20;93.80;;;;;;4982677;28;20448;-84
2022/03/17 13:19:51;;;;;;;7.07;3.30;;;12.60;93.40;;;;;;4998749;28;20574;-84
2022/03/17 13:22:39;;;;;;;7.90;3.63;;;12.80;92.80;;;;;;4973893;28;20550;-84
2022/03/17 13:25:22;;;;;;;3.50;3.20;;;12.60;93.10;;;;;;4985650;28;20416;-84
2022/03/17 13:28:01;;;;;;;5.20;3.10;;;12.40;93.70;;;;;;4999213;28;20477;-84
2022/03/17 13:30:37;;;;;;;5.60;3.40;;;12.30;94.00;;;;;;4982934;28;20451;-84
2022/03/17 13:33:51;;;;;;;5.53;3.10;;;12.30;94.20;;;;;;4965961;28;20484;-84
2022/03/17 13:36:24;;;;;;;7.70;2.73;;;12.30;93.80;;;;;;4984094;28;20455;-84
2022/03/17 13:39:08;;;;;;;7.60;3.47;;;12.40;93.90;;;;;;4984543;28;20491;-85
2022/03/17 13:42:10;;;;;;;9.93;3.93;;;12.60;93.30;;;;;;4977257;28;21674;-85
2022/03/17 13:45:23;;;;;;;6.20;3.43;;;12.80;92.40;;;;;;4987297;28;20458;-84
2022/03/17 13:48:48;;;;;;;10.17;2.80;;;12.60;92.30;;;;;;4944957;28;20457;-84
2022/03/17 13:51:28;;;;;;;6.13;3.23;;;13.00;91.40;;;;;;4984686;28;20562;-83
2022/03/17 13:54:19;;;;;;;6.67;3.10;;;13.20;90.60;;;;;;4976462;28;20501;-82
2022/03/17 13:57:09;;;;;;;6.40;3.23;;;13.00;90.30;;;;;;4985486;28;20467;-84
2022/03/17 13:59:41;;;;;;;6.27;3.03;;;13.20;88.80;;;;;;4990283;28;20484;-83
2022/03/17 14:02:29;;;;;;;7.13;3.20;;;13.00;88.90;;;;;;4991180;28;20483;-84
2022/03/17 14:04:59;;;;;;;5.30;3.03;;;13.00;88.70;;;;;;4989686;28;20448;-83
2022/03/17 14:07:34;;;;;;;6.50;3.17;;;13.00;87.20;;;;;;4990389;28;20448;-84